Time;durP1;ratioP1;P1;durP2;ratioP2;P2;SDS_P1;SDS_P2;PMS_P1;PMS_P2;Temp;Humidity;BMP_temperature;BMP_pressure;BME280_temperature;BME280_humidity;BME280_pressure;Samples;Min_cycle;Max_cycle;Signal;HPM_P1;HPM_P2
2022/01/02 00:00:40;;;;;;;14.83;13.40;;;;;;;10.97;64.42;101428.06;4974012;28;20447;-47
2022/01/02 00:03:08;;;;;;;16.23;14.20;;;;;;;10.97;63.92;101432.56;4973847;28;20438;-45
2022/01/02 00:05:38;;;;;;;15.57;13.97;;;;;;;10.94;62.58;101427.59;4973429;28;20485;-45
2022/01/02 00:08:08;;;;;;;16.20;13.50;;;;;;;10.92;62.52;101417.13;4973830;28;20967;-45
2022/01/02 00:10:38;;;;;;;19.23;14.20;;;;;;;10.91;61.60;101407.44;4974088;28;20449;-44
2022/01/02 00:13:09;;;;;;;14.80;13.50;;;;;;;10.91;61.08;101402.09;4973881;28;20431;-45
2022/01/02 00:15:38;;;;;;;19.57;14.97;;;;;;;10.87;60.51;101406.13;4971800;28;20470;-46
2022/01/02 00:18:09;;;;;;;15.60;13.73;;;;;;;10.87;60.31;101400.81;4973799;28;20940;-47
2022/01/02 00:20:46;;;;;;;16.13;14.80;;;;;;;10.89;60.35;101396.13;4974020;28;20999;-44
2022/01/02 00:23:19;;;;;;;15.80;14.17;;;;;;;10.89;60.62;101385.47;4973577;28;20423;-45
2022/01/02 00:25:52;;;;;;;16.50;14.93;;;;;;;10.88;59.37;101396.31;4973219;28;20574;-44
2022/01/02 00:28:22;;;;;;;15.70;14.03;;;;;;;10.88;59.24;101398.97;4973645;28;20541;-47
2022/01/02 00:30:50;;;;;;;18.73;15.57;;;;;;;10.86;58.95;101409.84;4973658;28;20963;-45
2022/01/02 00:33:19;;;;;;;17.67;15.77;;;;;;;10.83;56.35;101393.34;4973427;28;20442;-45
2022/01/02 00:35:47;;;;;;;17.30;13.20;;;;;;;10.83;55.70;101391.53;4972861;28;20491;-44
2022/01/02 00:38:20;;;;;;;17.27;15.40;;;;;;;10.83;55.57;101401.38;4973315;28;20530;-49
2022/01/02 00:40:49;;;;;;;16.73;15.10;;;;;;;10.81;54.69;101401.53;4973591;28;20443;-44
2022/01/02 00:43:26;;;;;;;19.37;15.17;;;;;;;10.79;53.89;101382.22;4977634;28;20991;-44
2022/01/02 00:45:57;;;;;;;23.40;16.23;;;;;;;10.78;53.45;101380.56;4984050;28;21064;-44
2022/01/02 00:48:29;;;;;;;19.03;14.87;;;;;;;10.78;53.39;101379.75;4992694;28;20522;-47
2022/01/02 00:51:01;;;;;;;16.70;15.17;;;;;;;10.78;51.28;101377.88;4992978;28;20477;-50
2022/01/02 00:53:34;;;;;;;19.27;14.20;;;;;;;10.76;51.08;101376.41;4992619;28;20434;-49
2022/01/02 00:56:03;;;;;;;22.43;16.17;;;;;;;10.76;51.33;101384.41;4992586;28;20450;-45
2022/01/02 00:58:38;;;;;;;17.10;15.40;;;;;;;10.73;50.08;101374.09;4992473;28;20449;-44
2022/01/02 01:01:07;;;;;;;18.83;16.33;;;;;;;10.74;49.76;101378.44;4992407;28;20609;-45
2022/01/02 01:03:36;;;;;;;22.10;15.93;;;;;;;10.74;49.41;101370.44;4991607;28;20521;-44
2022/01/02 01:06:05;;;;;;;17.43;15.63;;;;;;;10.74;48.29;101359.78;4992501;28;20577;-46
2022/01/02 01:08:35;;;;;;;25.83;15.77;;;;;;;10.73;47.59;101353.59;4992283;28;20446;-44
2022/01/02 01:11:07;;;;;;;19.97;15.83;;;;;;;10.72;47.35;101361.81;4992352;28;20525;-45
2022/01/02 01:13:37;;;;;;;19.93;16.90;;;;;;;10.72;46.69;101343.13;4991528;28;20426;-45
2022/01/02 01:16:05;;;;;;;19.67;16.47;;;;;;;10.70;46.13;101337.97;4992281;28;20469;-46
2022/01/02 01:18:33;;;;;;;24.53;17.40;;;;;;;10.70;44.90;101337.13;4992482;28;20921;-46
2022/01/02 01:21:00;;;;;;;21.20;15.43;;;;;;;10.70;44.68;101337.13;4992561;28;20524;-44
2022/01/02 01:23:28;;;;;;;23.00;16.57;;;;;;;10.68;45.06;101326.66;4992053;28;20878;-45
2022/01/02 01:25:56;;;;;;;18.57;15.67;;;;;;;10.68;43.44;101328.50;4991748;28;20519;-45
2022/01/02 01:28:23;;;;;;;17.53;15.67;;;;;;;10.66;42.73;101327.84;4992490;28;20438;-45
2022/01/02 01:30:52;;;;;;;20.03;17.50;;;;;;;10.65;42.21;101339.53;4992109;28;20441;-50
2022/01/02 01:33:20;;;;;;;24.10;16.57;;;;;;;10.65;41.41;101343.03;4991946;28;20434;-48
2022/01/02 01:35:47;;;;;;;21.40;17.60;;;;;;;10.64;41.72;101343.19;4991267;28;20834;-44
2022/01/02 01:38:15;;;;;;;22.97;16.40;;;;;;;10.65;42.38;101332.34;4992222;28;20438;-46
2022/01/02 01:40:49;;;;;;;20.30;16.60;;;;;;;10.67;41.68;101340.16;4992083;28;20617;-48
2022/01/02 01:43:16;;;;;;;21.77;17.63;;;;;;;10.65;41.44;101327.03;4989264;28;20434;-45
2022/01/02 01:45:44;;;;;;;26.70;17.70;;;;;;;10.66;40.28;101333.19;4983124;28;20485;-46
2022/01/02 01:48:14;;;;;;;21.70;17.70;;;;;;;10.64;39.57;101329.84;4992224;28;21118;-46
2022/01/02 01:50:43;;;;;;;21.23;17.73;;;;;;;10.65;39.35;101337.69;4991985;28;20476;-46
2022/01/02 01:53:11;;;;;;;20.50;17.30;;;;;;;10.64;38.49;101327.19;4991735;28;20441;-44
2022/01/02 01:55:39;;;;;;;25.70;17.80;;;;;;;10.64;37.79;101328.03;4991020;28;20468;-47
2022/01/02 01:58:08;;;;;;;19.80;17.83;;;;;;;10.67;38.42;101321.50;4992187;28;20521;-46
2022/01/02 02:00:36;;;;;;;19.90;15.67;;;;;;;10.65;38.53;101316.34;4992084;28;20807;-44
2022/01/02 02:03:04;;;;;;;28.43;17.97;;;;;;;10.67;38.52;101324.16;4991935;28;20434;-47
2022/01/02 02:05:34;;;;;;;21.63;17.70;;;;;;;10.64;37.70;101313.84;4990907;28;20477;-46
2022/01/02 02:08:03;;;;;;;19.13;17.03;;;;;;;10.63;37.29;101310.38;4991923;28;20477;-44
2022/01/02 02:10:35;;;;;;;19.90;17.77;;;;;;;10.63;36.91;101309.56;4992188;28;20537;-45
2022/01/02 02:13:05;;;;;;;24.53;17.93;;;;;;;10.61;36.27;101306.22;4991858;28;20434;-45
2022/01/02 02:15:33;;;;;;;19.67;17.60;;;;;;;10.63;34.75;101310.38;4991206;28;20552;-44
2022/01/02 02:18:00;;;;;;;19.47;17.67;;;;;;;10.63;35.48;101298.88;4991841;28;20434;-44
2022/01/02 02:20:32;;;;;;;22.80;18.63;;;;;;;10.62;35.66;101295.38;4993749;28;20477;-46
2022/01/02 02:23:01;;;;;;;18.97;17.03;;;;;;;10.61;35.59;101295.53;4995271;28;20529;-46
2022/01/02 02:25:32;;;;;;;22.13;19.77;;;;;;;10.63;35.42;101282.88;4994877;28;20478;-44
2022/01/02 02:28:02;;;;;;;22.30;18.73;;;;;;;10.63;36.04;101294.38;4995225;28;20449;-44
2022/01/02 02:30:32;;;;;;;22.50;19.27;;;;;;;10.64;35.79;101281.84;4995183;28;20434;-45
2022/01/02 02:33:03;;;;;;;24.73;18.73;;;;;;;10.65;36.56;101271.00;4995278;28;20792;-46
2022/01/02 02:35:33;;;;;;;22.70;18.83;;;;;;;10.65;37.00;101270.19;4994523;28;20552;-45
2022/01/02 02:38:02;;;;;;;19.77;17.87;;;;;;;10.67;37.17;101274.31;4995178;28;20430;-47
2022/01/02 02:40:31;;;;;;;24.40;18.53;;;;;;;10.67;36.96;101265.47;4995056;28;20430;-44
2022/01/02 02:43:03;;;;;;;23.37;19.60;;;;;;;10.66;37.67;101261.19;4991831;28;20543;-44
2022/01/02 02:51:22;;;;;;;21.83;17.53;;;;;;;10.68;40.27;101246.63;4994572;28;20438;-48
2022/01/02 02:53:53;;;;;;;21.10;17.10;;;;;;;10.68;41.67;101261.81;4994096;28;20466;-44
2022/01/02 02:56:26;;;;;;;24.90;16.10;;;;;;;10.66;42.89;101258.50;4994846;28;20533;-44
2022/01/02 02:58:56;;;;;;;21.30;16.83;;;;;;;10.66;42.70;101242.50;4994754;28;20434;-47
2022/01/02 03:01:25;;;;;;;19.60;17.10;;;;;;;10.64;42.63;101244.50;4994773;28;20822;-46
2022/01/02 03:03:53;;;;;;;21.20;15.97;;;;;;;10.61;42.69;101236.88;4993909;28;20485;-50
2022/01/02 03:06:23;;;;;;;18.90;15.47;;;;;;;10.65;43.02;101223.00;4994273;28;21035;-44
2022/01/02 03:08:52;;;;;;;16.97;15.03;;;;;;;10.63;44.84;101219.69;4994720;28;20525;-45
2022/01/02 03:11:23;;;;;;;21.20;16.00;;;;;;;10.65;46.00;101219.50;4994518;28;20526;-45
2022/01/02 03:13:52;;;;;;;17.50;15.80;;;;;;;10.67;46.36;101220.13;4993705;28;20468;-45
2022/01/02 03:16:20;;;;;;;18.37;15.60;;;;;;;10.68;46.50;101211.13;4994170;28;20490;-45
2022/01/02 03:18:48;;;;;;;19.60;14.83;;;;;;;10.68;46.94;101203.13;4994182;28;20434;-45
2022/01/02 03:21:15;;;;;;;16.90;15.17;;;;;;;10.69;48.05;101205.63;4994609;28;20529;-45
2022/01/02 03:23:44;;;;;;;21.13;15.47;;;;;;;10.66;49.98;101206.00;4993634;28;20441;-44
2022/01/02 03:26:12;;;;;;;17.43;15.40;;;;;;;10.68;50.29;101209.28;4994242;28;20478;-46
2022/01/02 03:28:40;;;;;;;17.83;15.27;;;;;;;10.67;50.72;101215.63;4993989;28;21039;-45
2022/01/02 03:31:07;;;;;;;18.10;14.30;;;;;;;10.68;51.16;101216.47;4993056;28;20533;-45
2022/01/02 03:33:36;;;;;;;21.23;16.00;;;;;;;10.69;51.44;101204.78;4993267;28;20522;-43
2022/01/02 03:36:04;;;;;;;17.17;15.47;;;;;;;10.68;52.71;101190.63;4993983;28;20536;-46
2022/01/02 03:38:37;;;;;;;18.10;16.40;;;;;;;10.69;53.71;101175.44;4994136;28;20441;-45
2022/01/02 03:41:06;;;;;;;17.90;15.10;;;;;;;10.67;54.63;101172.13;4993932;28;20446;-46
2022/01/02 03:43:33;;;;;;;18.77;16.57;;;;;;;10.68;55.07;101165.78;4990002;28;20437;-43
2022/01/02 03:46:03;;;;;;;16.17;14.53;;;;;;;10.68;55.41;101160.44;4985835;28;20825;-45
2022/01/02 03:48:32;;;;;;;21.40;15.30;;;;;;;10.67;56.68;101159.63;4993720;28;20438;-45
2022/01/02 03:51:04;;;;;;;18.83;14.90;;;;;;;10.65;57.50;101159.00;4993752;28;20434;-45
2022/01/02 03:53:32;;;;;;;16.30;14.27;;;;;;;10.66;57.20;101152.66;4993077;28;20951;-45
2022/01/02 03:55:59;;;;;;;19.77;14.00;;;;;;;10.66;57.74;101152.66;4993672;28;20454;-45
2022/01/02 03:58:29;;;;;;;16.50;14.83;;;;;;;10.68;58.22;101155.94;4993786;28;20446;-44
2022/01/02 04:00:57;;;;;;;17.83;15.90;;;;;;;10.68;59.54;101150.63;4993777;28;20524;-45
2022/01/02 04:03:24;;;;;;;18.23;15.57;;;;;;;10.69;59.72;101143.44;4993448;28;20434;-44
2022/01/02 04:05:52;;;;;;;18.37;15.80;;;;;;;10.71;59.49;101149.41;4992924;28;20481;-46
2022/01/02 04:08:19;;;;;;;21.60;15.20;;;;;;;10.70;60.08;101151.25;4993432;28;20517;-45
2022/01/02 04:10:47;;;;;;;16.60;15.00;;;;;;;10.66;60.97;101149.97;4993260;28;20434;-48
2022/01/02 04:13:15;;;;;;;20.87;16.00;;;;;;;10.66;59.58;101146.47;4993058;28;20434;-45
2022/01/02 04:15:44;;;;;;;21.73;14.33;;;;;;;10.66;59.41;101141.16;4992728;28;20466;-47
2022/01/02 04:18:11;;;;;;;22.63;15.53;;;;;;;10.64;59.75;101129.81;4993325;28;20433;-45
2022/01/02 04:20:39;;;;;;;19.07;14.90;;;;;;;10.63;60.03;101117.53;4993508;28;20440;-49
2022/01/02 04:23:07;;;;;;;16.53;14.90;;;;;;;10.61;58.85;101117.69;4992834;28;20517;-44
2022/01/02 04:25:34;;;;;;;18.27;16.03;;;;;;;10.62;58.03;101110.53;4992670;28;20466;-47
2022/01/02 04:28:02;;;;;;;19.03;16.20;;;;;;;10.61;57.38;101114.19;4992996;28;21014;-44
2022/01/02 04:30:29;;;;;;;19.40;17.30;;;;;;;10.61;56.50;101098.19;4993069;28;20473;-46
2022/01/02 04:32:58;;;;;;;17.60;15.77;;;;;;;10.61;55.64;101098.19;4992769;28;20448;-45
2022/01/02 04:35:26;;;;;;;20.27;16.77;;;;;;;10.61;55.23;101092.84;4992508;28;20462;-44
2022/01/02 04:37:54;;;;;;;17.20;15.50;;;;;;;10.61;54.44;101098.19;4993008;28;20430;-45
2022/01/02 04:40:21;;;;;;;18.23;16.13;;;;;;;10.60;52.98;101108.06;4993068;28;20445;-46
2022/01/02 04:42:49;;;;;;;18.23;16.43;;;;;;;10.61;53.35;101096.34;4989511;28;20449;-45
2022/01/02 04:45:16;;;;;;;25.77;18.57;;;;;;;10.62;54.04;101081.19;4987778;28;20465;-45
2022/01/02 04:47:44;;;;;;;23.43;17.53;;;;;;;10.57;54.31;101081.75;4973310;28;20479;-45
2022/01/02 04:50:13;;;;;;;23.57;19.20;;;;;;;10.58;52.58;101080.72;4973267;28;20445;-43
2022/01/02 04:52:41;;;;;;;23.80;19.50;;;;;;;10.57;52.15;101059.59;4973291;28;20929;-44
2022/01/02 04:55:09;;;;;;;19.90;17.90;;;;;;;10.58;51.79;101062.06;4972963;28;20458;-46
2022/01/02 04:57:36;;;;;;;22.27;18.77;;;;;;;10.59;52.19;101061.06;4973329;28;20446;-46
2022/01/02 05:00:05;;;;;;;21.50;18.83;;;;;;;10.57;52.60;101055.09;4973259;28;20441;-44
2022/01/02 05:02:33;;;;;;;23.47;19.43;;;;;;;10.57;51.47;101053.22;4972957;28;20521;-45
2022/01/02 05:05:01;;;;;;;24.67;20.87;;;;;;;10.56;51.52;101048.09;4972715;28;20455;-46
2022/01/02 05:07:30;;;;;;;25.60;20.63;;;;;;;10.54;50.42;101053.59;4973335;28;20573;-48
2022/01/02 05:09:58;;;;;;;21.20;18.40;;;;;;;10.57;50.40;101044.44;4973415;28;20537;-45
2022/01/02 05:12:25;;;;;;;20.40;18.50;;;;;;;10.53;49.80;101041.31;4973088;28;20431;-48
2022/01/02 05:14:53;;;;;;;21.87;19.13;;;;;;;10.54;49.38;101028.81;4972587;28;21048;-45
2022/01/02 05:17:21;;;;;;;21.50;18.60;;;;;;;10.53;50.21;101037.81;4972793;28;20485;-45
2022/01/02 05:19:48;;;;;;;26.10;19.53;;;;;;;10.51;49.63;101023.84;4973097;28;20439;-45
2022/01/02 05:22:16;;;;;;;23.40;19.70;;;;;;;10.56;48.84;101018.78;4973149;28;20786;-46
2022/01/02 05:24:45;;;;;;;22.63;19.40;;;;;;;10.57;49.70;101021.22;4972490;28;20489;-44
2022/01/02 05:27:13;;;;;;;20.60;18.40;;;;;;;10.57;50.76;101015.09;4972877;28;20856;-45
2022/01/02 05:29:40;;;;;;;24.90;19.07;;;;;;;10.59;51.23;101004.22;4972965;28;20975;-44
2022/01/02 05:32:08;;;;;;;23.23;19.47;;;;;;;10.58;52.24;101003.41;4973110;28;20439;-47
2022/01/02 05:34:36;;;;;;;25.77;18.00;;;;;;;10.60;52.24;101017.38;4972426;28;20459;-46
2022/01/02 05:37:04;;;;;;;20.03;17.80;;;;;;;10.59;53.66;101015.72;4972923;28;20454;-49
2022/01/02 05:39:31;;;;;;;24.73;20.00;;;;;;;10.59;53.88;101004.22;4972765;28;20966;-46
2022/01/02 05:42:01;;;;;;;20.43;18.30;;;;;;;10.56;54.43;101002.78;4972764;28;20901;-45
2022/01/02 05:44:28;;;;;;;20.63;18.20;;;;;;;10.57;54.08;100991.09;4977200;28;20906;-45
2022/01/02 05:46:56;;;;;;;29.53;19.97;;;;;;;10.53;54.18;100979.97;4990990;28;20485;-47
2022/01/02 05:49:24;;;;;;;26.37;19.13;;;;;;;10.54;53.26;100976.28;4992172;28;20441;-46
2022/01/02 05:51:52;;;;;;;22.33;18.10;;;;;;;10.56;53.37;100989.44;4992345;28;20430;-46
2022/01/02 05:54:20;;;;;;;24.93;19.43;;;;;;;10.55;53.27;101001.09;4991890;28;20457;-48
2022/01/02 05:56:48;;;;;;;31.80;18.90;;;;;;;10.57;53.04;100989.22;4995748;28;20536;-47
2022/01/02 05:59:16;;;;;;;21.60;19.30;;;;;;;10.59;53.29;100982.88;4995803;28;20882;-44
2022/01/02 06:01:44;;;;;;;26.93;19.27;;;;;;;10.60;54.51;100987.22;4995970;28;20429;-48
2022/01/02 06:04:12;;;;;;;34.33;21.17;;;;;;;10.57;55.49;100987.59;4995166;28;20461;-45
2022/01/02 06:06:39;;;;;;;23.77;20.87;;;;;;;10.57;54.75;100975.09;4995633;28;20820;-47
2022/01/02 06:09:07;;;;;;;30.87;20.77;;;;;;;10.57;53.83;100991.09;4995845;28;20546;-45
2022/01/02 06:11:35;;;;;;;22.20;19.90;;;;;;;10.57;53.88;100980.44;4995696;28;20517;-46
2022/01/02 06:14:03;;;;;;;26.23;21.13;;;;;;;10.57;53.33;100970.56;4995054;28;20468;-48
2022/01/02 06:16:32;;;;;;;30.43;20.50;;;;;;;10.63;52.42;100973.50;4995427;28;20461;-46
2022/01/02 06:19:00;;;;;;;25.00;21.50;;;;;;;10.63;53.03;100976.16;4995669;28;20434;-47
2022/01/02 06:21:28;;;;;;;27.63;20.53;;;;;;;10.64;54.30;100973.28;4995362;28;20441;-50
2022/01/02 06:23:56;;;;;;;28.47;21.43;;;;;;;10.64;55.70;100977.81;4994604;28;20541;-44
2022/01/02 06:26:23;;;;;;;26.40;20.87;;;;;;;10.68;54.30;100960.41;4995445;28;20464;-45
2022/01/02 06:28:51;;;;;;;27.60;20.90;;;;;;;10.69;55.07;100949.56;4995321;28;20564;-47
2022/01/02 06:31:18;;;;;;;33.67;21.93;;;;;;;10.71;56.39;100950.19;4995304;28;20442;-45
2022/01/02 06:33:50;;;;;;;29.43;22.30;;;;;;;10.70;57.38;100947.69;4993264;28;20496;-46
2022/01/02 06:36:17;;;;;;;32.57;22.47;;;;;;;10.67;58.91;100948.91;4994999;28;20462;-47
2022/01/02 06:38:45;;;;;;;30.63;21.40;;;;;;;10.70;58.05;100951.19;4994932;28;20436;-45
2022/01/02 06:41:12;;;;;;;36.20;23.37;;;;;;;10.70;58.73;100951.19;4995190;28;20430;-45
2022/01/02 06:43:40;;;;;;;33.20;23.57;;;;;;;10.74;57.13;100939.13;4991616;28;20522;-44
2022/01/02 06:46:08;;;;;;;34.83;22.47;;;;;;;10.72;57.59;100941.16;4978914;28;20446;-48
2022/01/02 06:48:36;;;;;;;30.90;21.90;;;;;;;10.73;58.24;100937.47;4994528;28;20617;-46
2022/01/02 06:51:05;;;;;;;30.90;24.13;;;;;;;10.73;56.96;100941.97;4994754;28;21133;-48
2022/01/02 06:53:33;;;;;;;35.80;24.70;;;;;;;10.70;56.40;100937.03;4994333;28;20621;-48
2022/01/02 06:56:00;;;;;;;35.70;24.07;;;;;;;10.71;55.12;100944.84;4994948;28;20450;-47
2022/01/02 06:58:28;;;;;;;30.43;24.77;;;;;;;10.71;53.45;100934.19;4994929;28;20426;-46
2022/01/02 07:00:56;;;;;;;36.27;27.03;;;;;;;10.67;53.90;100922.25;4994648;28;20440;-45
2022/01/02 07:03:25;;;;;;;26.60;22.57;;;;;;;10.68;50.88;100913.22;4993787;28;20434;-47
2022/01/02 07:05:53;;;;;;;28.50;24.27;;;;;;;10.70;50.92;100905.03;4992584;28;20546;-43
2022/01/02 07:08:22;;;;;;;26.93;23.70;;;;;;;10.72;50.49;100895.00;4994525;28;20564;-43
2022/01/02 07:10:49;;;;;;;37.43;25.43;;;;;;;10.72;51.08;100893.13;4994481;28;20781;-48
2022/01/02 07:13:17;;;;;;;29.80;22.80;;;;;;;10.70;50.84;100897.03;4994451;28;20536;-44
2022/01/02 07:15:44;;;;;;;25.70;21.70;;;;;;;10.70;50.09;100905.84;4993776;28;20474;-47
2022/01/02 07:18:12;;;;;;;26.40;23.30;;;;;;;10.69;48.92;100911.41;4993912;28;20863;-45
2022/01/02 07:20:40;;;;;;;23.67;21.20;;;;;;;10.71;47.50;100896.84;4994424;28;20434;-46
2022/01/02 07:23:08;;;;;;;24.77;22.17;;;;;;;10.74;48.07;100900.97;4993745;28;20533;-46
2022/01/02 07:25:37;;;;;;;25.33;22.63;;;;;;;10.71;49.46;100894.19;4993904;28;20466;-45
2022/01/02 07:28:04;;;;;;;27.93;23.10;;;;;;;10.70;49.37;100870.34;4972818;28;20487;-49
2022/01/02 07:30:32;;;;;;;26.57;21.67;;;;;;;10.68;47.72;100880.41;4972587;28;20441;-47
2022/01/02 07:33:02;;;;;;;31.03;20.97;;;;;;;10.67;46.75;100874.22;4972849;28;20450;-50
2022/01/02 07:35:29;;;;;;;30.30;21.70;;;;;;;10.64;46.29;100869.28;4972801;28;20466;-51
2022/01/02 07:38:15;;;;;;;22.40;19.77;;;;;;;10.63;45.17;100878.31;4973262;28;20434;-50
2022/01/02 07:40:44;;;;;;;22.30;20.00;;;;;;;10.60;44.02;100868.03;4972814;28;20804;-46
2022/01/02 07:43:12;;;;;;;26.33;21.07;;;;;;;10.59;42.83;100858.38;4975658;28;20522;-46
2022/01/02 07:45:39;;;;;;;24.27;20.83;;;;;;;10.57;41.50;100850.56;4983831;28;20890;-47
2022/01/02 07:48:08;;;;;;;26.23;21.40;;;;;;;10.56;40.16;100837.44;4992438;28;20513;-46
2022/01/02 07:50:35;;;;;;;20.43;18.33;;;;;;;10.53;39.85;100829.81;4991180;28;20961;-46
2022/01/02 07:53:03;;;;;;;26.63;20.83;;;;;;;10.51;38.21;100827.34;4981475;28;20451;-47
2022/01/02 07:55:30;;;;;;;21.50;18.90;;;;;;;10.50;36.19;100825.72;4987156;28;20561;-48
2022/01/02 07:58:01;;;;;;;20.87;18.63;;;;;;;10.51;35.31;100821.22;4971997;28;21021;-45
2022/01/02 08:00:28;;;;;;;24.97;19.67;;;;;;;10.49;34.08;100817.88;4972310;28;20877;-46
2022/01/02 08:02:56;;;;;;;22.87;18.10;;;;;;;10.49;33.96;100816.06;4971712;28;20439;-46
2022/01/02 08:05:24;;;;;;;21.23;18.43;;;;;;;10.48;33.01;100814.41;4971556;28;20471;-46
2022/01/02 08:07:52;;;;;;;20.40;18.30;;;;;;;10.50;31.68;100804.38;4971797;28;20479;-46
2022/01/02 08:10:19;;;;;;;18.47;16.00;;;;;;;10.51;31.52;100803.34;4988068;28;20439;-48
2022/01/02 08:12:47;;;;;;;18.40;16.60;;;;;;;10.51;30.64;100811.34;4990816;28;20432;-47
2022/01/02 08:15:16;;;;;;;22.93;16.80;;;;;;;10.49;30.25;100813.38;4990133;28;21283;-45
2022/01/02 08:17:44;;;;;;;20.40;18.20;;;;;;;10.49;30.19;100810.72;4990677;28;20438;-43
2022/01/02 08:20:12;;;;;;;21.97;19.70;;;;;;;10.50;29.46;100815.03;4990399;28;20451;-45
2022/01/02 08:22:39;;;;;;;20.97;19.03;;;;;;;10.51;30.14;100810.53;4990445;28;20504;-44
2022/01/02 08:25:08;;;;;;;22.17;20.07;;;;;;;10.51;30.76;100802.53;4990655;28;20883;-45
2022/01/02 08:27:35;;;;;;;22.17;19.97;;;;;;;10.49;30.84;100799.22;4972984;28;21067;-45
2022/01/02 08:30:04;;;;;;;23.60;19.67;;;;;;;10.50;30.61;100799.03;4971263;28;20471;-45
2022/01/02 08:32:33;;;;;;;22.17;20.00;;;;;;;10.48;30.72;100800.25;4971129;28;20795;-45
2022/01/02 08:35:01;;;;;;;19.90;18.30;;;;;;;10.49;30.25;100799.22;4970891;28;20466;-47
2022/01/02 08:37:28;;;;;;;20.40;18.47;;;;;;;10.49;29.99;100788.56;4971219;28;20459;-46
2022/01/02 08:39:56;;;;;;;20.77;18.87;;;;;;;10.52;29.98;100785.50;4971579;28;20546;-43
2022/01/02 08:42:23;;;;;;;19.57;17.97;;;;;;;10.53;30.34;100790.66;4971258;28;20435;-45
2022/01/02 08:44:51;;;;;;;21.07;19.17;;;;;;;10.52;31.28;100783.66;4956106;28;20458;-46
2022/01/02 08:47:19;;;;;;;22.00;20.00;;;;;;;10.53;31.36;100773.81;4990656;28;20454;-46
2022/01/02 08:49:48;;;;;;;21.47;19.67;;;;;;;10.51;31.76;100767.88;4990498;28;20473;-44
2022/01/02 08:52:16;;;;;;;21.30;19.40;;;;;;;10.50;31.53;100776.88;4990398;28;20807;-45
2022/01/02 08:54:43;;;;;;;21.00;19.00;;;;;;;10.50;31.07;100761.72;4989983;28;20557;-45
2022/01/02 08:57:11;;;;;;;22.50;20.60;;;;;;;10.52;31.05;100757.00;4966801;28;20488;-50
2022/01/02 08:59:38;;;;;;;22.87;20.70;;;;;;;10.51;31.34;100744.69;4990293;28;20449;-45
2022/01/02 09:02:06;;;;;;;20.47;18.37;;;;;;;10.55;31.03;100732.63;4990332;28;20978;-47
2022/01/02 09:04:34;;;;;;;19.70;17.77;;;;;;;10.58;31.28;100726.06;4990212;28;20461;-44
2022/01/02 09:07:04;;;;;;;21.03;19.03;;;;;;;10.61;31.19;100714.16;4990332;28;21141;-45
2022/01/02 09:09:33;;;;;;;19.37;17.73;;;;;;;10.64;31.17;100708.44;4989866;28;20480;-46
2022/01/02 09:12:01;;;;;;;18.07;16.27;;;;;;;10.66;31.07;100696.59;4990053;28;20470;-47
2022/01/02 09:14:29;;;;;;;18.53;16.93;;;;;;;10.69;32.02;100693.53;4990157;28;21248;-47
2022/01/02 09:16:57;;;;;;;19.33;17.40;;;;;;;10.71;32.55;100693.31;4990045;28;21075;-50
2022/01/02 09:19:25;;;;;;;18.60;17.20;;;;;;;10.69;33.32;100690.84;4989791;28;20550;-47
2022/01/02 09:21:53;;;;;;;17.97;16.57;;;;;;;10.74;33.35;100687.56;4990221;28;20430;-47
2022/01/02 09:24:22;;;;;;;17.60;16.00;;;;;;;10.77;35.08;100676.50;4990011;28;21135;-48
2022/01/02 09:26:50;;;;;;;17.30;15.90;;;;;;;10.77;36.30;100664.00;4990212;28;20468;-47
2022/01/02 09:29:17;;;;;;;16.80;15.40;;;;;;;10.81;36.22;100667.09;4991576;28;20485;-44
2022/01/02 09:31:50;;;;;;;18.03;16.43;;;;;;;10.84;36.35;100666.69;4994157;28;20788;-46
2022/01/02 09:34:18;;;;;;;16.37;14.93;;;;;;;10.86;38.10;100652.13;4994141;28;20533;-47
2022/01/02 09:36:46;;;;;;;17.40;15.90;;;;;;;10.89;38.54;100635.72;4994252;28;20559;-46
2022/01/02 09:39:14;;;;;;;15.33;14.23;;;;;;;10.89;40.59;100638.41;4993870;28;20458;-45
2022/01/02 09:41:43;;;;;;;15.47;14.27;;;;;;;10.92;40.39;100619.31;4994037;28;20442;-45
2022/01/02 09:44:10;;;;;;;15.17;14.17;;;;;;;10.94;41.13;100619.94;4993782;28;20446;-44
2022/01/02 09:46:41;;;;;;;16.73;15.27;;;;;;;10.93;43.19;100633.47;4994045;28;20868;-47
2022/01/02 09:49:09;;;;;;;15.17;13.87;;;;;;;10.94;44.06;100635.94;4993464;28;20474;-48
2022/01/02 09:51:37;;;;;;;15.80;14.60;;;;;;;10.93;45.28;100641.50;4993699;28;20525;-45
2022/01/02 09:54:05;;;;;;;16.40;15.00;;;;;;;10.89;47.06;100634.91;4993664;28;20973;-45
2022/01/02 09:56:32;;;;;;;16.70;15.40;;;;;;;10.90;46.80;100655.22;4993622;28;20457;-47
2022/01/02 09:59:02;;;;;;;15.77;14.50;;;;;;;10.89;47.21;100648.25;4993519;28;20553;-44
2022/01/02 10:01:32;;;;;;;16.60;15.37;;;;;;;10.88;46.76;100639.41;4977504;28;20441;-44
2022/01/02 10:04:00;;;;;;;15.93;14.63;;;;;;;10.93;44.87;100636.94;4974090;28;20469;-47
2022/01/02 10:06:40;;;;;;;15.07;13.97;;;;;;;10.94;45.22;100627.94;4967205;28;20583;-46
2022/01/02 10:09:15;;;;;;;15.07;13.77;;;;;;;10.96;45.44;100625.06;4961774;28;20574;-44
2022/01/02 10:11:43;;;;;;;13.97;12.80;;;;;;;10.98;45.89;100623.84;4963389;28;20522;-46
2022/01/02 10:14:12;;;;;;;15.30;14.13;;;;;;;10.99;46.77;100622.00;4964418;28;20479;-46
2022/01/02 10:16:41;;;;;;;15.43;14.07;;;;;;;11.00;46.06;100623.63;4962825;28;20575;-46
2022/01/02 10:19:21;;;;;;;15.57;14.33;;;;;;;11.00;46.16;100608.44;4962799;28;20902;-45
2022/01/02 10:21:57;;;;;;;15.33;13.80;;;;;;;11.02;47.19;100605.59;4962940;28;20435;-47
2022/01/02 10:24:27;;;;;;;13.50;12.33;;;;;;;11.06;46.85;100596.97;4962233;28;20447;-46
2022/01/02 10:27:08;;;;;;;14.63;13.53;;;;;;;11.08;48.33;100580.72;4962923;28;20850;-46
2022/01/02 10:29:47;;;;;;;13.53;12.23;;;;;;;11.10;50.43;100576.88;4962290;28;20482;-46
2022/01/02 10:32:39;;;;;;;13.07;12.03;;;;;;;11.10;52.92;100576.03;4962564;28;20435;-44
2022/01/02 10:35:13;;;;;;;12.23;11.27;;;;;;;11.10;54.74;100568.84;4944695;28;20813;-47
2022/01/02 10:37:42;;;;;;;14.00;12.60;;;;;;;11.09;56.01;100551.19;4962372;28;20451;-46
2022/01/02 10:40:31;;;;;;;11.83;10.93;;;;;;;11.10;56.96;100555.50;4962546;28;20518;-46
2022/01/02 10:43:00;;;;;;;10.63;9.83;;;;;;;11.06;59.26;100540.09;4963374;28;20479;-48
2022/01/02 10:45:34;;;;;;;11.47;10.57;;;;;;;11.03;60.14;100532.50;4965323;28;20867;-45
2022/01/02 10:48:03;;;;;;;11.70;10.50;;;;;;;11.05;59.11;100523.25;4962959;28;20454;-47
2022/01/02 10:50:36;;;;;;;11.63;10.60;;;;;;;11.09;58.32;100526.34;4962829;28;20484;-45
2022/01/02 10:53:15;;;;;;;13.60;12.20;;;;;;;11.06;61.59;100532.09;4962398;28;20514;-45
2022/01/02 10:55:45;;;;;;;11.03;10.30;;;;;;;11.02;62.87;100533.53;4963163;28;20540;-47
2022/01/02 10:58:15;;;;;;;8.63;7.97;;;;;;;10.96;64.78;100526.34;4961578;28;20561;-45
2022/01/02 11:00:44;;;;;;;8.93;8.13;;;;;;;10.90;65.44;100521.84;4961011;28;20455;-46
2022/01/02 11:03:13;;;;;;;10.97;10.03;;;;;;;10.87;64.32;100517.69;4961751;28;21001;-49
2022/01/02 11:05:41;;;;;;;10.10;9.37;;;;;;;10.87;63.72;100509.69;4962774;28;20527;-45
2022/01/02 11:08:09;;;;;;;10.30;9.43;;;;;;;10.85;63.25;100498.41;4962959;28;20438;-45
2022/01/02 11:10:36;;;;;;;13.33;9.57;;;;;;;10.85;62.43;100485.09;4960794;28;20823;-47
2022/01/02 11:13:05;;;;;;;9.07;8.13;;;;;;;10.87;61.87;100480.34;4961287;28;20526;-46
2022/01/02 11:15:34;;;;;;;28.33;24.00;;;;;;;10.89;61.42;100472.16;4962587;28;20566;-45
2022/01/02 11:18:03;;;;;;;9.57;8.80;;;;;;;10.88;61.40;100470.50;4962393;28;20446;-49
2022/01/02 11:20:33;;;;;;;8.17;7.50;;;;;;;10.90;60.84;100482.63;4962202;28;20547;-45
2022/01/02 11:23:08;;;;;;;7.90;7.30;;;;;;;10.93;60.88;100478.75;4961018;28;20479;-46